Time;durP1;ratioP1;P1;durP2;ratioP2;P2;SDS_P1;SDS_P2;PMS_P1;PMS_P2;Temp;Humidity;BMP_temperature;BMP_pressure;BME280_temperature;BME280_humidity;BME280_pressure;Samples;Min_cycle;Max_cycle;Signal;HPM_P1;HPM_P2
2024/01/28 00:01:32;;;;;;;;;;;1.20;99.90;;;;;;4936836;28;19925;-71
2024/01/28 00:03:58;;;;;;;;;;;1.10;99.90;;;;;;4944011;28;19930;-70
2024/01/28 00:06:23;;;;;;;;;;;1.10;99.90;;;;;;4923221;28;19929;-70
2024/01/28 00:08:49;;;;;;;;;;;1.00;99.90;;;;;;4956165;28;20870;-70
2024/01/28 00:11:15;;;;;;;;;;;1.00;99.90;;;;;;4919874;28;19931;-71
2024/01/28 00:13:41;;;;;;;;;;;1.00;99.90;;;;;;4957801;28;21166;-71
2024/01/28 00:16:12;;;;;;;;;;;0.90;99.90;;;;;;4912540;28;19936;-70
2024/01/28 00:18:38;;;;;;;;;;;0.90;99.90;;;;;;4945218;28;19925;-70
2024/01/28 00:21:04;;;;;;;;;;;0.90;99.90;;;;;;4916630;28;19970;-70
2024/01/28 00:23:30;;;;;;;;;;;0.90;99.90;;;;;;4958773;28;19929;-70
2024/01/28 00:25:57;;;;;;;;;;;0.90;99.90;;;;;;4916056;28;19926;-70
2024/01/28 00:28:23;;;;;;;;;;;0.90;99.90;;;;;;4974047;28;20439;-70
2024/01/28 00:30:49;;;;;;;;;;;0.80;99.90;;;;;;4928986;28;20933;-70
2024/01/28 00:33:15;;;;;;;;;;;0.80;99.90;;;;;;4947688;28;19926;-71
2024/01/28 00:35:40;;;;;;;;;;;0.70;99.90;;;;;;4913162;28;19930;-71
2024/01/28 00:38:06;;;;;;;;;;;0.80;99.90;;;;;;4946852;28;20898;-71
2024/01/28 00:40:32;;;;;;;;;;;0.80;99.90;;;;;;4939595;28;20531;-71
2024/01/28 00:42:58;;;;;;;;;;;0.70;99.90;;;;;;4926007;28;20069;-70
2024/01/28 00:45:24;;;;;;;;;;;0.70;99.90;;;;;;4941614;28;20012;-70
2024/01/28 00:47:51;;;;;;;;;;;0.80;99.90;;;;;;4917339;28;20438;-70
2024/01/28 00:50:16;;;;;;;;;;;0.80;99.90;;;;;;4941992;28;19926;-71
2024/01/28 00:52:44;;;;;;;;;;;0.80;99.90;;;;;;4932900;28;19925;-69
2024/01/28 00:55:10;;;;;;;;;;;0.80;99.90;;;;;;4944261;28;19949;-71
2024/01/28 00:57:35;;;;;;;;;;;0.90;99.90;;;;;;4929686;28;20219;-71
2024/01/28 01:00:02;;;;;;;;;;;0.90;99.90;;;;;;4960908;28;20560;-71
2024/01/28 01:02:28;;;;;;;;;;;0.90;99.90;;;;;;4912981;28;19933;-70
2024/01/28 01:04:54;;;;;;;;;;;0.90;99.90;;;;;;4940780;28;20619;-70
2024/01/28 01:07:20;;;;;;;;;;;1.00;99.90;;;;;;4934916;28;19931;-70
2024/01/28 01:09:46;;;;;;;;;;;1.00;99.90;;;;;;4943317;28;20916;-71
2024/01/28 01:12:12;;;;;;;;;;;1.00;99.90;;;;;;4932015;28;19932;-70
2024/01/28 01:14:37;;;;;;;;;;;0.90;99.90;;;;;;4943822;28;19926;-71
2024/01/28 01:17:04;;;;;;;;;;;0.90;99.90;;;;;;4921421;28;19980;-71
2024/01/28 01:19:30;;;;;;;;;;;0.90;99.90;;;;;;4959445;28;19925;-73
2024/01/28 01:21:57;;;;;;;;;;;0.90;99.90;;;;;;4924520;28;20169;-71
2024/01/28 01:24:23;;;;;;;;;;;1.00;99.90;;;;;;4946379;28;19934;-70
2024/01/28 01:26:50;;;;;;;;;;;1.00;99.90;;;;;;4912278;28;20450;-70
2024/01/28 01:29:16;;;;;;;;;;;1.00;99.90;;;;;;4939824;28;19925;-71
2024/01/28 01:31:42;;;;;;;;;;;1.00;99.90;;;;;;4921343;28;19926;-71
2024/01/28 01:34:08;;;;;;;;;;;1.00;99.90;;;;;;4957821;28;19932;-70
2024/01/28 01:36:34;;;;;;;;;;;1.00;99.90;;;;;;4936291;28;19925;-70
2024/01/28 01:39:00;;;;;;;;;;;1.00;99.90;;;;;;4953412;28;19925;-70
2024/01/28 01:41:26;;;;;;;;;;;1.00;99.90;;;;;;4928347;28;19940;-69
2024/01/28 01:43:52;;;;;;;;;;;0.90;99.90;;;;;;4939562;28;19961;-70
2024/01/28 01:46:20;;;;;;;;;;;0.90;99.90;;;;;;4919594;28;19929;-70
2024/01/28 01:48:47;;;;;;;;;;;1.00;99.90;;;;;;4941652;28;19933;-70
2024/01/28 01:51:13;;;;;;;;;;;1.00;99.90;;;;;;4909727;28;19941;-69
2024/01/28 01:53:39;;;;;;;;;;;1.10;99.90;;;;;;4930922;28;20035;-70
2024/01/28 01:56:05;;;;;;;;;;;1.10;99.90;;;;;;4918178;28;19929;-70
2024/01/28 01:58:31;;;;;;;;;;;1.10;99.90;;;;;;4944112;28;19932;-71
2024/01/28 02:00:58;;;;;;;;;;;1.20;99.90;;;;;;4918765;28;19937;-70
2024/01/28 02:03:26;;;;;;;;;;;1.20;99.90;;;;;;4972346;28;19936;-71
2024/01/28 02:05:52;;;;;;;;;;;1.20;99.90;;;;;;4930502;28;19977;-70
2024/01/28 02:08:18;;;;;;;;;;;1.20;99.90;;;;;;4953834;28;19926;-70
2024/01/28 02:10:45;;;;;;;;;;;1.20;99.90;;;;;;4912633;28;21368;-70
2024/01/28 02:13:11;;;;;;;;;;;1.20;99.90;;;;;;4957520;28;19925;-69
2024/01/28 02:15:37;;;;;;;;;;;1.20;99.90;;;;;;4938838;28;20938;-70
2024/01/28 02:18:04;;;;;;;;;;;1.20;99.90;;;;;;4960906;28;19932;-70
2024/01/28 02:20:30;;;;;;;;;;;1.30;99.90;;;;;;4938653;28;19930;-70
2024/01/28 02:22:56;;;;;;;;;;;1.30;99.90;;;;;;4912329;28;20422;-70
2024/01/28 02:25:22;;;;;;;;;;;1.30;99.90;;;;;;4936631;28;20136;-71
2024/01/28 02:27:48;;;;;;;;;;;1.40;99.90;;;;;;4916347;28;20963;-70
2024/01/28 02:30:14;;;;;;;;;;;1.40;99.90;;;;;;4939833;28;19926;-70
2024/01/28 02:32:50;;;;;;;;;;;1.50;99.90;;;;;;4915796;28;19936;-70
2024/01/28 02:35:16;;;;;;;;;;;1.60;99.90;;;;;;4941212;28;19926;-72
2024/01/28 02:37:42;;;;;;;;;;;1.70;99.90;;;;;;4929631;28;19933;-71
2024/01/28 02:40:09;;;;;;;;;;;1.70;99.90;;;;;;4939297;28;19938;-70
2024/01/28 02:42:35;;;;;;;;;;;1.80;99.90;;;;;;4932481;28;19929;-70
2024/01/28 02:45:01;;;;;;;;;;;1.80;99.90;;;;;;4941945;28;19947;-71
2024/01/28 02:47:27;;;;;;;;;;;1.80;99.90;;;;;;4902457;28;20044;-71
2024/01/28 02:49:53;;;;;;;;;;;1.80;99.90;;;;;;4925995;28;20837;-70
2024/01/28 02:52:19;;;;;;;;;;;1.80;99.90;;;;;;4912114;28;19956;-70
2024/01/28 02:54:45;;;;;;;;;;;1.80;99.90;;;;;;4947162;28;19936;-70
2024/01/28 02:57:10;;;;;;;;;;;1.80;99.90;;;;;;4935422;28;20738;-70
2024/01/28 02:59:36;;;;;;;;;;;1.80;99.90;;;;;;4952839;28;21082;-70
2024/01/28 03:02:03;;;;;;;;;;;1.80;99.90;;;;;;4924635;28;19925;-71
2024/01/28 03:04:29;;;;;;;;;;;1.80;99.90;;;;;;4954151;28;20428;-70
2024/01/28 03:06:55;;;;;;;;;;;1.80;99.90;;;;;;4942550;28;19932;-70
2024/01/28 03:09:21;;;;;;;;;;;1.80;99.90;;;;;;4957770;28;19930;-70
2024/01/28 03:11:46;;;;;;;;;;;1.80;99.90;;;;;;4925050;28;19925;-71
2024/01/28 03:14:12;;;;;;;;;;;1.80;99.90;;;;;;4946762;28;20018;-70
2024/01/28 03:16:38;;;;;;;;;;;1.80;99.90;;;;;;4931225;28;19929;-71
2024/01/28 03:19:04;;;;;;;;;;;1.90;99.90;;;;;;4966863;28;19925;-71
2024/01/28 03:21:30;;;;;;;;;;;1.80;99.90;;;;;;4930525;28;21097;-71
2024/01/28 03:23:56;;;;;;;;;;;1.90;99.90;;;;;;4958733;28;19940;-71
2024/01/28 03:26:22;;;;;;;;;;;2.00;99.90;;;;;;4932427;28;19933;-71
2024/01/28 03:28:48;;;;;;;;;;;2.00;99.90;;;;;;4945557;28;20546;-70
2024/01/28 03:31:14;;;;;;;;;;;2.00;99.90;;;;;;4936934;28;19932;-71
2024/01/28 03:33:40;;;;;;;;;;;2.00;99.90;;;;;;4951319;28;21259;-70
2024/01/28 03:36:08;;;;;;;;;;;2.10;99.90;;;;;;4934412;28;20310;-70
2024/01/28 03:38:34;;;;;;;;;;;2.10;99.90;;;;;;4952240;28;20421;-70
2024/01/28 03:41:00;;;;;;;;;;;2.10;99.90;;;;;;4933588;28;19936;-70
2024/01/28 03:43:25;;;;;;;;;;;2.10;99.90;;;;;;4938432;28;20399;-69
2024/01/28 03:45:51;;;;;;;;;;;2.10;99.90;;;;;;4931949;28;19940;-70
2024/01/28 03:48:17;;;;;;;;;;;2.10;99.90;;;;;;4950421;28;20386;-70
2024/01/28 03:50:43;;;;;;;;;;;2.20;99.90;;;;;;4931544;28;19937;-71
2024/01/28 03:53:09;;;;;;;;;;;2.20;99.90;;;;;;4967501;28;19979;-71
2024/01/28 03:55:35;;;;;;;;;;;2.20;99.90;;;;;;4950848;28;19930;-69
2024/01/28 03:58:01;;;;;;;;;;;2.20;99.90;;;;;;4934998;28;19926;-70
2024/01/28 04:00:30;;;;;;;;;;;2.10;99.90;;;;;;4961521;28;19960;-70
2024/01/28 04:02:56;;;;;;;;;;;2.10;99.90;;;;;;4925774;28;19932;-69
2024/01/28 04:05:23;;;;;;;;;;;2.10;99.90;;;;;;4962388;28;19929;-70
2024/01/28 04:07:49;;;;;;;;;;;2.00;99.90;;;;;;4932760;28;19973;-69
2024/01/28 04:10:15;;;;;;;;;;;2.00;99.90;;;;;;4962015;28;19941;-70
2024/01/28 04:12:41;;;;;;;;;;;2.00;99.90;;;;;;4935667;28;19936;-70
2024/01/28 04:15:07;;;;;;;;;;;1.90;99.90;;;;;;4962695;28;19925;-70
2024/01/28 04:17:33;;;;;;;;;;;1.90;99.90;;;;;;4952360;28;19959;-71
2024/01/28 04:19:59;;;;;;;;;;;1.90;99.90;;;;;;4960479;28;20012;-70
2024/01/28 04:22:26;;;;;;;;;;;1.80;99.90;;;;;;4937566;28;19925;-70
2024/01/28 04:24:52;;;;;;;;;;;1.70;99.90;;;;;;4961222;28;19929;-70
2024/01/28 04:27:17;;;;;;;;;;;1.70;99.90;;;;;;4931386;28;19925;-71
2024/01/28 04:29:43;;;;;;;;;;;1.60;99.90;;;;;;4956083;28;19932;-71
2024/01/28 04:32:14;;;;;;;;;;;1.50;99.90;;;;;;4948911;28;20657;-70
2024/01/28 04:34:40;;;;;;;;;;;1.40;99.90;;;;;;4966054;28;19930;-71
2024/01/28 04:37:06;;;;;;;;;;;1.40;99.90;;;;;;4919281;28;19925;-70
2024/01/28 04:39:34;;;;;;;;;;;1.40;99.90;;;;;;4958979;28;19932;-71
2024/01/28 04:42:01;;;;;;;;;;;1.30;99.90;;;;;;4945991;28;20438;-70
2024/01/28 04:44:27;;;;;;;;;;;1.30;99.90;;;;;;4967873;28;19933;-70
2024/01/28 04:46:55;;;;;;;;;;;1.20;99.90;;;;;;4943448;28;20426;-70
2024/01/28 04:49:21;;;;;;;;;;;1.20;99.90;;;;;;4962690;28;19929;-70
2024/01/28 04:51:47;;;;;;;;;;;1.20;99.90;;;;;;4941575;28;19940;-70
2024/01/28 04:54:14;;;;;;;;;;;1.20;99.90;;;;;;4971997;28;20616;-71
2024/01/28 04:56:40;;;;;;;;;;;1.20;99.90;;;;;;4934912;28;19929;-70
2024/01/28 04:59:06;;;;;;;;;;;1.20;99.90;;;;;;4963864;28;20320;-69
2024/01/28 05:01:33;;;;;;;;;;;1.20;99.90;;;;;;4933740;28;20023;-71
2024/01/28 05:04:01;;;;;;;;;;;1.20;99.90;;;;;;4962737;28;19925;-70
2024/01/28 05:06:34;;;;;;;;;;;1.20;99.90;;;;;;4940363;28;19928;-71
2024/01/28 05:09:02;;;;;;;;;;;1.20;99.90;;;;;;4972665;28;19930;-70
2024/01/28 05:11:28;;;;;;;;;;;1.10;99.90;;;;;;4938029;28;19925;-71
2024/01/28 05:13:54;;;;;;;;;;;1.10;99.90;;;;;;4972913;28;20983;-70
2024/01/28 05:16:20;;;;;;;;;;;1.00;99.90;;;;;;4940484;28;19929;-70
2024/01/28 05:18:46;;;;;;;;;;;1.10;99.90;;;;;;4962246;28;20431;-70
2024/01/28 05:21:12;;;;;;;;;;;1.00;99.90;;;;;;4931985;28;19925;-70
2024/01/28 05:23:38;;;;;;;;;;;1.00;99.90;;;;;;4956201;28;20606;-71
2024/01/28 05:26:04;;;;;;;;;;;1.00;99.90;;;;;;4926933;28;19974;-70
2024/01/28 05:28:30;;;;;;;;;;;1.00;99.90;;;;;;4940546;28;19930;-70
2024/01/28 05:30:56;;;;;;;;;;;1.00;99.90;;;;;;4913110;28;19982;-71
2024/01/28 05:33:22;;;;;;;;;;;1.00;99.90;;;;;;4956956;28;19936;-71
2024/01/28 05:35:48;;;;;;;;;;;0.90;99.90;;;;;;4932606;28;19929;-70
2024/01/28 05:38:13;;;;;;;;;;;0.90;99.90;;;;;;4961849;28;19956;-69
2024/01/28 05:40:41;;;;;;;;;;;0.90;99.90;;;;;;4928849;28;19925;-70
2024/01/28 05:43:07;;;;;;;;;;;0.90;99.90;;;;;;4945338;28;20999;-70
2024/01/28 05:45:33;;;;;;;;;;;0.90;99.90;;;;;;4934134;28;19930;-71
2024/01/28 05:48:01;;;;;;;;;;;1.00;99.90;;;;;;4941677;28;19929;-70
2024/01/28 05:50:28;;;;;;;;;;;1.00;99.90;;;;;;4936905;28;20746;-70
2024/01/28 05:52:55;;;;;;;;;;;1.00;99.90;;;;;;4878838;28;19925;-71
2024/01/28 05:55:20;;;;;;;;;;;1.00;99.90;;;;;;4939417;28;19930;-71
2024/01/28 05:57:46;;;;;;;;;;;1.00;99.90;;;;;;4918136;28;20448;-70
2024/01/28 06:00:13;;;;;;;;;;;0.90;99.90;;;;;;4938118;28;19933;-71
2024/01/28 06:02:38;;;;;;;;;;;0.90;99.90;;;;;;4931732;28;19933;-71
2024/01/28 06:05:04;;;;;;;;;;;0.90;99.90;;;;;;4938421;28;19934;-71
2024/01/28 06:07:30;;;;;;;;;;;0.90;99.90;;;;;;4915411;28;19930;-70
2024/01/28 06:09:56;;;;;;;;;;;0.80;99.90;;;;;;4937820;28;19933;-70
2024/01/28 06:12:22;;;;;;;;;;;0.80;99.90;;;;;;4926402;28;19925;-70
2024/01/28 06:14:48;;;;;;;;;;;0.80;99.90;;;;;;4942411;28;19930;-71
2024/01/28 06:17:15;;;;;;;;;;;0.90;99.90;;;;;;4925887;28;19925;-71
2024/01/28 06:19:41;;;;;;;;;;;0.90;99.90;;;;;;4943748;28;19937;-71
2024/01/28 06:22:07;;;;;;;;;;;0.90;99.90;;;;;;4887691;28;19925;-71
2024/01/28 06:24:35;;;;;;;;;;;0.80;99.90;;;;;;4924463;28;19929;-70
2024/01/28 06:27:01;;;;;;;;;;;0.80;99.90;;;;;;4921370;28;19929;-71
2024/01/28 06:29:27;;;;;;;;;;;0.80;99.90;;;;;;4945488;28;19969;-71
2024/01/28 06:31:53;;;;;;;;;;;0.80;99.90;;;;;;4927425;28;19988;-70
2024/01/28 06:34:19;;;;;;;;;;;0.70;99.90;;;;;;4950717;28;20980;-71
2024/01/28 06:36:45;;;;;;;;;;;0.80;99.90;;;;;;4921599;28;19992;-71
2024/01/28 06:39:11;;;;;;;;;;;0.80;99.90;;;;;;4968105;28;20050;-70
2024/01/28 06:41:37;;;;;;;;;;;0.70;99.90;;;;;;4908435;28;19936;-71
2024/01/28 06:44:03;;;;;;;;;;;0.60;99.90;;;;;;4939071;28;19930;-70
2024/01/28 06:46:29;;;;;;;;;;;0.60;99.90;;;;;;4915128;28;21295;-71
2024/01/28 06:48:55;;;;;;;;;;;0.50;99.90;;;;;;4941400;28;21054;-71
2024/01/28 06:51:21;;;;;;;;;;;0.40;99.90;;;;;;4920459;28;19940;-72
2024/01/28 06:53:47;;;;;;;;;;;0.40;99.90;;;;;;4945660;28;21083;-70
2024/01/28 06:56:13;;;;;;;;;;;0.30;99.90;;;;;;4913950;28;19926;-71
2024/01/28 06:58:41;;;;;;;;;;;0.20;99.90;;;;;;4940806;28;19941;-71
2024/01/28 07:01:09;;;;;;;;;;;0.20;99.90;;;;;;4916706;28;19936;-70
2024/01/28 07:03:35;;;;;;;;;;;0.20;99.90;;;;;;4961789;28;19949;-71
2024/01/28 07:06:01;;;;;;;;;;;0.20;99.90;;;;;;4916886;28;19941;-70
2024/01/28 07:08:27;;;;;;;;;;;0.20;99.90;;;;;;4961724;28;19934;-69
2024/01/28 07:10:53;;;;;;;;;;;0.10;99.90;;;;;;4914306;28;19927;-72
2024/01/28 07:13:19;;;;;;;;;;;0.10;99.90;;;;;;4945845;28;19926;-71
2024/01/28 07:15:45;;;;;;;;;;;0.10;99.90;;;;;;4914039;28;20078;-71
2024/01/28 07:18:10;;;;;;;;;;;0.00;99.90;;;;;;4949652;28;20971;-71
2024/01/28 07:20:36;;;;;;;;;;;-0.10;99.90;;;;;;4926571;28;19936;-71
2024/01/28 07:23:04;;;;;;;;;;;-0.10;99.90;;;;;;4932224;28;19926;-70
2024/01/28 07:25:30;;;;;;;;;;;-0.10;99.90;;;;;;4941874;28;19937;-71
2024/01/28 07:27:56;;;;;;;;;;;-0.10;99.90;;;;;;4933166;28;19936;-72
2024/01/28 07:30:22;;;;;;;;;;;-0.10;99.90;;;;;;4963333;28;20499;-71
2024/01/28 07:32:48;;;;;;;;;;;-0.10;99.90;;;;;;4935271;28;19925;-71
2024/01/28 07:35:15;;;;;;;;;;;-0.10;99.90;;;;;;4951614;28;20206;-71
2024/01/28 07:37:42;;;;;;;;;;;-0.10;99.90;;;;;;4953192;28;19929;-72
2024/01/28 07:40:08;;;;;;;;;;;-0.10;99.90;;;;;;4958983;28;19936;-72
2024/01/28 07:42:34;;;;;;;;;;;-0.10;99.90;;;;;;4949631;28;19940;-72
2024/01/28 07:45:00;;;;;;;;;;;-0.10;99.90;;;;;;4962444;28;21017;-71
2024/01/28 07:47:26;;;;;;;;;;;-0.20;99.90;;;;;;4946915;28;19940;-71
2024/01/28 07:49:52;;;;;;;;;;;-0.20;99.90;;;;;;4963508;28;20453;-72
2024/01/28 07:52:18;;;;;;;;;;;-0.20;99.90;;;;;;4937876;28;19926;-71
2024/01/28 07:54:44;;;;;;;;;;;-0.10;99.90;;;;;;4950851;28;20545;-72
2024/01/28 07:57:09;;;;;;;;;;;-0.10;99.90;;;;;;4934338;28;19925;-71
2024/01/28 07:59:35;;;;;;;;;;;0.00;99.90;;;;;;4949825;28;19941;-71
2024/01/28 08:02:02;;;;;;;;;;;0.00;99.90;;;;;;4887731;28;20447;-72
2024/01/28 08:04:28;;;;;;;;;;;0.10;99.90;;;;;;4936618;28;19930;-71
2024/01/28 08:06:54;;;;;;;;;;;0.10;99.90;;;;;;4926366;28;19925;-73
2024/01/28 08:09:20;;;;;;;;;;;0.20;99.90;;;;;;4949801;28;20550;-72
2024/01/28 08:11:46;;;;;;;;;;;0.20;99.90;;;;;;4914607;28;19929;-72
2024/01/28 08:14:12;;;;;;;;;;;0.30;99.90;;;;;;4937136;28;19926;-71
2024/01/28 08:16:37;;;;;;;;;;;0.30;99.90;;;;;;4926332;28;19929;-71
2024/01/28 08:19:06;;;;;;;;;;;0.40;99.90;;;;;;4948753;28;19945;-71
2024/01/28 08:21:32;;;;;;;;;;;0.40;99.90;;;;;;4925521;28;19925;-71
2024/01/28 08:23:58;;;;;;;;;;;0.40;99.90;;;;;;4969296;28;20414;-71
2024/01/28 08:26:24;;;;;;;;;;;0.40;99.90;;;;;;4937602;28;20563;-72
2024/01/28 08:28:50;;;;;;;;;;;0.40;99.90;;;;;;4959296;28;19925;-72
2024/01/28 08:31:16;;;;;;;;;;;0.50;99.90;;;;;;4927909;28;20646;-72
2024/01/28 08:33:42;;;;;;;;;;;0.50;99.90;;;;;;4941227;28;19930;-73
2024/01/28 08:36:08;;;;;;;;;;;0.50;99.90;;;;;;4923813;28;19937;-72
2024/01/28 08:38:34;;;;;;;;;;;0.50;99.90;;;;;;4961257;28;19932;-72
2024/01/28 08:41:00;;;;;;;;;;;0.50;99.90;;;;;;4931316;28;21150;-73
2024/01/28 08:43:26;;;;;;;;;;;0.50;99.90;;;;;;4982888;28;19932;-73
2024/01/28 08:45:52;;;;;;;;;;;0.50;99.90;;;;;;4934025;28;19929;-71
2024/01/28 08:48:18;;;;;;;;;;;0.60;99.90;;;;;;4961414;28;20400;-71
2024/01/28 08:50:45;;;;;;;;;;;0.70;99.90;;;;;;4911726;28;19932;-68
2024/01/28 08:53:11;;;;;;;;;;;0.70;99.90;;;;;;4976306;28;19930;-68
2024/01/28 08:55:37;;;;;;;;;;;0.70;99.90;;;;;;4944592;28;19936;-68
2024/01/28 08:58:03;;;;;;;;;;;0.80;99.90;;;;;;4934256;28;20672;-69
2024/01/28 09:00:29;;;;;;;;;;;0.90;99.90;;;;;;4942207;28;19925;-70
2024/01/28 09:02:55;;;;;;;;;;;0.90;99.90;;;;;;4945354;28;19926;-69
2024/01/28 09:05:21;;;;;;;;;;;1.00;99.90;;;;;;4958873;28;19936;-70
2024/01/28 09:07:47;;;;;;;;;;;1.10;99.90;;;;;;4913627;28;20023;-70
2024/01/28 09:10:13;;;;;;;;;;;1.20;99.90;;;;;;4942807;28;19925;-69
2024/01/28 09:12:39;;;;;;;;;;;1.30;99.90;;;;;;4913616;28;19925;-69
2024/01/28 09:15:06;;;;;;;;;;;1.40;99.90;;;;;;4939072;28;20966;-69
2024/01/28 09:17:31;;;;;;;;;;;1.50;99.90;;;;;;4934518;28;19930;-69
2024/01/28 09:19:57;;;;;;;;;;;1.60;99.90;;;;;;4940963;28;20327;-69
2024/01/28 09:22:23;;;;;;;;;;;1.60;99.90;;;;;;4932648;28;19936;-69
2024/01/28 09:24:49;;;;;;;;;;;1.70;99.90;;;;;;4938972;28;20543;-70
2024/01/28 09:27:17;;;;;;;;;;;1.80;99.90;;;;;;4937188;28;20666;-68
2024/01/28 09:29:43;;;;;;;;;;;2.00;99.90;;;;;;4960562;28;20917;-69
2024/01/28 09:32:09;;;;;;;;;;;2.10;99.90;;;;;;4922377;28;19925;-69
2024/01/28 09:34:35;;;;;;;;;;;2.10;99.90;;;;;;4944359;28;19926;-68
2024/01/28 09:37:01;;;;;;;;;;;2.20;99.90;;;;;;4910530;28;19929;-70
2024/01/28 09:39:28;;;;;;;;;;;2.20;99.90;;;;;;4940625;28;19957;-69
2024/01/28 09:41:59;;;;;;;;;;;2.30;99.90;;;;;;4933146;28;19932;-70
2024/01/28 09:44:26;;;;;;;;;;;2.30;99.90;;;;;;4966005;28;19933;-70
2024/01/28 09:46:53;;;;;;;;;;;2.40;99.90;;;;;;4933402;28;19933;-69
2024/01/28 09:49:20;;;;;;;;;;;2.40;99.90;;;;;;4943048;28;19986;-70
2024/01/28 09:51:46;;;;;;;;;;;2.50;99.90;;;;;;4932178;28;19936;-70
2024/01/28 09:54:12;;;;;;;;;;;2.60;99.90;;;;;;4970086;28;20012;-69
2024/01/28 09:56:41;;;;;;;;;;;2.70;99.90;;;;;;4932110;28;21075;-69
2024/01/28 09:59:08;;;;;;;;;;;2.80;99.90;;;;;;4948391;28;19925;-69
2024/01/28 10:01:34;;;;;;;;;;;2.90;99.90;;;;;;4921279;28;19937;-69
2024/01/28 10:04:01;;;;;;;;;;;3.10;99.90;;;;;;4956202;28;19930;-71
2024/01/28 10:06:27;;;;;;;;;;;3.20;99.90;;;;;;4925471;28;20430;-70
2024/01/28 10:08:52;;;;;;;;;;;3.30;99.90;;;;;;4964044;28;19926;-70
2024/01/28 10:11:18;;;;;;;;;;;3.30;99.90;;;;;;4939066;28;19951;-69
2024/01/28 10:13:46;;;;;;;;;;;3.40;99.90;;;;;;4948889;28;19940;-69
2024/01/28 10:16:11;;;;;;;;;;;3.50;99.90;;;;;;4928625;28;19929;-69
2024/01/28 10:18:37;;;;;;;;;;;3.60;99.90;;;;;;4982812;28;19925;-69
2024/01/28 10:21:03;;;;;;;;;;;3.70;99.90;;;;;;4935706;28;19929;-69
2024/01/28 10:23:34;;;;;;;;;;;3.80;99.90;;;;;;4966160;28;20708;-69
2024/01/28 10:26:03;;;;;;;;;;;3.90;99.90;;;;;;4944143;28;20008;-69
2024/01/28 10:28:29;;;;;;;;;;;3.90;99.90;;;;;;4966812;28;19925;-69
2024/01/28 10:30:55;;;;;;;;;;;4.00;99.90;;;;;;4937196;28;19939;-67
2024/01/28 10:33:21;;;;;;;;;;;4.10;99.90;;;;;;4958932;28;19936;-69
2024/01/28 10:35:47;;;;;;;;;;;4.10;99.90;;;;;;4910883;28;19926;-68
2024/01/28 10:38:19;;;;;;;;;;;4.30;99.90;;;;;;4956812;28;19925;-69
2024/01/28 10:40:45;;;;;;;;;;;4.40;99.90;;;;;;4935191;28;19945;-69
2024/01/28 10:43:11;;;;;;;;;;;4.40;99.90;;;;;;4968356;28;19941;-70
2024/01/28 10:45:41;;;;;;;;;;;4.50;99.90;;;;;;4938738;28;19930;-68
2024/01/28 10:48:11;;;;;;;;;;;4.60;99.90;;;;;;4955054;28;19933;-69
2024/01/28 10:50:38;;;;;;;;;;;4.60;99.90;;;;;;4945269;28;19945;-69
2024/01/28 10:53:06;;;;;;;;;;;4.70;99.90;;;;;;4923058;28;19926;-69
2024/01/28 10:55:33;;;;;;;;;;;4.80;99.90;;;;;;4942556;28;19926;-69
2024/01/28 10:57:59;;;;;;;;;;;4.90;99.90;;;;;;4933599;28;19929;-69
2024/01/28 11:00:26;;;;;;;;;;;4.90;99.90;;;;;;4938062;28;20543;-69
2024/01/28 11:02:54;;;;;;;;;;;4.90;99.90;;;;;;4933514;28;19929;-70
2024/01/28 11:05:21;;;;;;;;;;;5.00;99.90;;;;;;4939918;28;20575;-70
2024/01/28 11:07:48;;;;;;;;;;;5.00;99.90;;;;;;4934479;28;19929;-70
2024/01/28 11:10:13;;;;;;;;;;;5.00;99.90;;;;;;4942777;28;19926;-70
2024/01/28 11:12:39;;;;;;;;;;;5.10;99.90;;;;;;4920002;28;19925;-70
2024/01/28 11:15:10;;;;;;;;;;;5.20;99.90;;;;;;4941398;28;19933;-70
2024/01/28 11:17:37;;;;;;;;;;;5.30;99.90;;;;;;4940506;28;20028;-70
2024/01/28 11:20:16;;;;;;;;;;;5.40;99.90;;;;;;4952791;28;19929;-70
2024/01/28 11:23:00;;;;;;;;;;;5.50;99.90;;;;;;4949421;28;20215;-70
2024/01/28 11:25:27;;;;;;;;;;;5.50;99.90;;;;;;4961028;28;19936;-70
2024/01/28 11:28:00;;;;;;;;;;;5.60;99.90;;;;;;4927235;28;19925;-70
2024/01/28 11:30:27;;;;;;;;;;;5.60;99.90;;;;;;4955248;28;19926;-70
2024/01/28 11:32:56;;;;;;;;;;;5.60;99.90;;;;;;4927969;28;19930;-70
2024/01/28 11:35:23;;;;;;;;;;;5.70;99.90;;;;;;4949558;28;19946;-71
2024/01/28 11:37:53;;;;;;;;;;;5.80;99.90;;;;;;4929053;28;19929;-72
2024/01/28 11:40:26;;;;;;;;;;;5.90;99.90;;;;;;4957452;28;19926;-70
2024/01/28 11:42:55;;;;;;;;;;;6.00;99.90;;;;;;4935802;28;19933;-70
2024/01/28 11:45:22;;;;;;;;;;;6.00;99.90;;;;;;4959781;28;19932;-71
2024/01/28 11:47:48;;;;;;;;;;;6.00;99.90;;;;;;4929734;28;20524;-71
2024/01/28 11:50:14;;;;;;;;;;;6.00;99.90;;;;;;4962241;28;19925;-70
2024/01/28 11:52:40;;;;;;;;;;;6.10;99.90;;;;;;4932084;28;19933;-71
2024/01/28 11:55:16;;;;;;;;;;;6.10;99.90;;;;;;4962160;28;19925;-70
2024/01/28 11:57:43;;;;;;;;;;;6.10;99.90;;;;;;4932280;28;19929;-71
2024/01/28 12:00:10;;;;;;;;;;;6.20;99.90;;;;;;4960598;28;19940;-71
2024/01/28 12:02:37;;;;;;;;;;;6.20;99.90;;;;;;4953896;28;19991;-71
2024/01/28 12:05:03;;;;;;;;;;;6.30;99.90;;;;;;4962383;28;19940;-72
2024/01/28 12:07:39;;;;;;;;;;;6.30;99.90;;;;;;4950093;28;19928;-71
2024/01/28 12:10:09;;;;;;;;;;;6.40;99.90;;;;;;4962063;28;19926;-71
2024/01/28 12:12:36;;;;;;;;;;;6.40;99.90;;;;;;4933277;28;19925;-71
2024/01/28 12:15:03;;;;;;;;;;;6.40;99.90;;;;;;4961974;28;19956;-69
2024/01/28 12:17:35;;;;;;;;;;;6.50;99.90;;;;;;4950869;28;19932;-71
2024/01/28 12:20:03;;;;;;;;;;;6.50;99.90;;;;;;4958197;28;19944;-70
2024/01/28 12:22:38;;;;;;;;;;;6.50;99.90;;;;;;4925266;28;19930;-70
2024/01/28 12:25:11;;;;;;;;;;;6.50;99.90;;;;;;4940045;28;19945;-70
2024/01/28 12:27:37;;;;;;;;;;;6.70;99.90;;;;;;4951969;28;19933;-70
2024/01/28 12:30:04;;;;;;;;;;;8.20;99.90;;;;;;4956885;28;19929;-70
2024/01/28 12:32:30;;;;;;;;;;;10.10;99.90;;;;;;4950124;28;19924;-71
2024/01/28 12:35:01;;;;;;;;;;;11.50;99.90;;;;;;4959900;28;19937;-70
2024/01/28 12:37:27;;;;;;;;;;;12.70;99.90;;;;;;4928514;28;19929;-71
2024/01/28 12:39:53;;;;;;;;;;;13.30;98.10;;;;;;4940322;28;19976;-71
2024/01/28 12:42:19;;;;;;;;;;;13.90;99.30;;;;;;4941962;28;19929;-70
2024/01/28 12:44:45;;;;;;;;;;;14.40;98.70;;;;;;4962813;28;20301;-70
2024/01/28 12:47:11;;;;;;;;;;;15.40;99.90;;;;;;4947488;28;19940;-70
2024/01/28 12:49:36;;;;;;;;;;;15.90;96.10;;;;;;4965870;28;19925;-70
2024/01/28 12:52:02;;;;;;;;;;;16.20;96.20;;;;;;4935465;28;20321;-70
2024/01/28 12:54:28;;;;;;;;;;;16.30;93.30;;;;;;4964313;28;20753;-71
2024/01/28 12:56:54;;;;;;;;;;;16.60;95.10;;;;;;4942337;28;19929;-71
2024/01/28 12:59:20;;;;;;;;;;;16.70;92.10;;;;;;4956042;28;19929;-71
2024/01/28 13:01:46;;;;;;;;;;;16.60;93.60;;;;;;4928184;28;19926;-70
2024/01/28 13:04:13;;;;;;;;;;;16.70;96.20;;;;;;4950951;28;19929;-71
2024/01/28 13:06:38;;;;;;;;;;;17.50;96.20;;;;;;4930357;28;21043;-71
2024/01/28 13:09:09;;;;;;;;;;;17.80;94.00;;;;;;4953931;28;19936;-70
2024/01/28 13:11:36;;;;;;;;;;;17.90;92.50;;;;;;4924960;28;19932;-70
2024/01/28 13:14:01;;;;;;;;;;;17.70;92.90;;;;;;4954232;28;19925;-71
2024/01/28 13:16:27;;;;;;;;;;;18.00;92.80;;;;;;4931074;28;19930;-71
2024/01/28 13:18:53;;;;;;;;;;;18.60;93.40;;;;;;4958793;28;20506;-71
2024/01/28 13:21:19;;;;;;;;;;;18.90;91.90;;;;;;4930046;28;19925;-71
2024/01/28 13:23:45;;;;;;;;;;;19.30;92.70;;;;;;4958946;28;19964;-71
2024/01/28 13:26:11;;;;;;;;;;;19.20;91.30;;;;;;4923614;28;19933;-71
2024/01/28 13:28:37;;;;;;;;;;;19.60;94.20;;;;;;4955911;28;19925;-71
2024/01/28 13:31:03;;;;;;;;;;;20.10;92.20;;;;;;4932053;28;20681;-69
2024/01/28 13:33:30;;;;;;;;;;;20.60;92.00;;;;;;4973942;28;19925;-70
2024/01/28 13:35:56;;;;;;;;;;;20.60;87.20;;;;;;4926395;28;19942;-71
2024/01/28 13:38:22;;;;;;;;;;;20.30;90.60;;;;;;4942763;28;20036;-70
2024/01/28 13:40:48;;;;;;;;;;;19.90;91.60;;;;;;4925050;28;19956;-70
2024/01/28 13:43:14;;;;;;;;;;;20.10;91.90;;;;;;4955631;28;19925;-70
2024/01/28 13:45:40;;;;;;;;;;;20.10;89.60;;;;;;4941132;28;20265;-69
2024/01/28 13:48:06;;;;;;;;;;;20.10;86.30;;;;;;4956679;28;20335;-70
2024/01/28 13:50:32;;;;;;;;;;;20.40;90.80;;;;;;4954145;28;19929;-69
2024/01/28 13:52:58;;;;;;;;;;;20.50;90.30;;;;;;4917673;28;20003;-69
2024/01/28 13:55:24;;;;;;;;;;;20.50;90.40;;;;;;4956544;28;20688;-69
2024/01/28 13:57:50;;;;;;;;;;;20.90;90.90;;;;;;4941965;28;20539;-70
2024/01/28 14:00:16;;;;;;;;;;;21.40;90.10;;;;;;4955905;28;19932;-70
2024/01/28 14:02:44;;;;;;;;;;;21.50;87.90;;;;;;4934945;28;20672;-70
2024/01/28 14:05:11;;;;;;;;;;;21.10;88.10;;;;;;4935381;28;19930;-70
2024/01/28 14:07:38;;;;;;;;;;;21.10;88.40;;;;;;4882605;28;21249;-70
2024/01/28 14:10:04;;;;;;;;;;;21.00;90.10;;;;;;4934622;28;19930;-71
2024/01/28 14:12:30;;;;;;;;;;;21.10;90.40;;;;;;4929275;28;19929;-70
2024/01/28 14:14:55;;;;;;;;;;;21.30;90.90;;;;;;4917977;28;19933;-70
2024/01/28 14:17:21;;;;;;;;;;;21.50;88.20;;;;;;4901996;28;19926;-70
2024/01/28 14:19:47;;;;;;;;;;;21.70;88.80;;;;;;4933098;28;21056;-69
2024/01/28 14:22:13;;;;;;;;;;;21.70;90.00;;;;;;4924298;28;19975;-70
2024/01/28 14:24:39;;;;;;;;;;;21.90;89.10;;;;;;4941641;28;19955;-69